createdAt,value
2023-08-23T00:00:39.384Z,101849.56
2023-08-23T00:03:07.282Z,101854.22
2023-08-23T00:05:35.134Z,101854.41
2023-08-23T00:08:02.955Z,101853.88
2023-08-23T00:10:32.149Z,101860.25
2023-08-23T00:13:00.712Z,101857.88
2023-08-23T00:15:28.446Z,101847.09
2023-08-23T00:17:56.305Z,101851.59
2023-08-23T00:20:24.070Z,101842.34
2023-08-23T00:22:51.921Z,101853.06
2023-08-23T00:25:19.738Z,101855.06
2023-08-23T00:27:56.855Z,101850.72
2023-08-23T00:30:31.382Z,101850.88
2023-08-23T00:32:59.243Z,101855.41
2023-08-23T00:35:27.016Z,101851.03
2023-08-23T00:37:54.742Z,101850.34
2023-08-23T00:40:22.525Z,101853.34
2023-08-23T00:42:51.658Z,101839.72
2023-08-23T00:45:19.365Z,101850.97
2023-08-23T00:47:47.532Z,101843.91
2023-08-23T00:50:15.432Z,101835.19
2023-08-23T00:52:52.592Z,101835.31
2023-08-23T00:55:21.177Z,101835.47
2023-08-23T00:57:49.086Z,101833.09
2023-08-23T01:00:18.757Z,101847.50
2023-08-23T01:02:47.649Z,101836.25
2023-08-23T01:05:15.819Z,101829.34
2023-08-23T01:07:51.495Z,101826.00
2023-08-23T01:10:26.043Z,101832.69
2023-08-23T01:13:01.265Z,101826.09
2023-08-23T01:15:31.681Z,101833.13
2023-08-23T01:18:00.757Z,101830.91
2023-08-23T01:20:29.377Z,101832.44
2023-08-23T01:23:08.595Z,101837.97
2023-08-23T01:25:36.291Z,101831.75
2023-08-23T01:28:04.364Z,101834.56
2023-08-23T01:30:32.668Z,101828.69
2023-08-23T01:33:03.302Z,101828.16
2023-08-23T01:35:39.323Z,101834.50
2023-08-23T01:38:09.314Z,101827.06
2023-08-23T01:40:37.621Z,101838.50
2023-08-23T01:43:05.762Z,101838.78
2023-08-23T01:45:33.546Z,101836.44
2023-08-23T01:48:01.467Z,101837.59
2023-08-23T01:50:29.334Z,101833.34
2023-08-23T01:52:57.093Z,101834.34
2023-08-23T01:55:26.811Z,101812.47
2023-08-23T01:57:54.589Z,101834.50
2023-08-23T02:00:22.419Z,101831.16
2023-08-23T02:02:50.278Z,101826.75
2023-08-23T02:05:18.258Z,101826.94
2023-08-23T02:07:45.969Z,101827.91
2023-08-23T02:10:13.999Z,101825.41
2023-08-23T02:12:44.534Z,101819.38
2023-08-23T02:15:12.318Z,101818.53
2023-08-23T02:17:40.162Z,101830.91
2023-08-23T02:20:08.943Z,101822.16
2023-08-23T02:22:36.710Z,101817.13
2023-08-23T02:25:04.797Z,101819.13
2023-08-23T02:27:32.550Z,101814.38
2023-08-23T02:30:01.699Z,101803.66
2023-08-23T02:32:29.558Z,101786.84
2023-08-23T02:34:57.618Z,101807.34
2023-08-23T02:37:25.376Z,101801.97
2023-08-23T02:39:53.186Z,101810.19
2023-08-23T02:42:20.973Z,101814.13
2023-08-23T02:44:48.802Z,101811.88
2023-08-23T02:47:17.983Z,101801.63
2023-08-23T02:49:45.878Z,101804.47
2023-08-23T02:52:13.679Z,101803.78
2023-08-23T02:54:41.434Z,101799.38
2023-08-23T02:57:09.223Z,101799.53
2023-08-23T02:59:37.011Z,101790.84
2023-08-23T03:02:04.746Z,101799.00
2023-08-23T03:04:33.943Z,101794.94
2023-08-23T03:07:01.729Z,101797.63
2023-08-23T03:09:29.479Z,101797.63
2023-08-23T03:11:57.301Z,101794.25
2023-08-23T03:14:25.085Z,101795.25
2023-08-23T03:16:52.911Z,101791.19
2023-08-23T03:19:20.681Z,101790.34
2023-08-23T03:21:49.988Z,101792.34
2023-08-23T03:24:17.772Z,101778.53
2023-08-23T03:26:45.540Z,101786.41
2023-08-23T03:29:13.241Z,101776.72
2023-08-23T03:31:41.172Z,101784.75
2023-08-23T03:34:09.243Z,101774.34
2023-08-23T03:36:36.991Z,101784.22
2023-08-23T03:39:06.222Z,101785.19
2023-08-23T03:41:34.018Z,101778.28
2023-08-23T03:44:01.751Z,101779.28
2023-08-23T03:46:29.655Z,101779.44
2023-08-23T03:48:57.449Z,101782.28
2023-08-23T03:51:25.242Z,101785.09
2023-08-23T03:53:52.993Z,101793.25
2023-08-23T03:56:22.143Z,101787.22
2023-08-23T03:58:50.488Z,101779.19
2023-08-23T04:01:18.289Z,101788.22
2023-08-23T04:03:46.202Z,101794.72
2023-08-23T04:06:14.093Z,101784.16
2023-08-23T04:08:41.850Z,101780.94
2023-08-23T04:11:09.639Z,101785.44
2023-08-23T04:13:38.734Z,101774.06
2023-08-23T04:16:06.576Z,101777.00
2023-08-23T04:18:34.336Z,101781.25
2023-08-23T04:21:02.541Z,101789.16
2023-08-23T04:23:30.518Z,101796.19
2023-08-23T04:25:58.368Z,101798.19
2023-08-23T04:28:26.224Z,101800.56
2023-08-23T04:30:55.465Z,101805.09
2023-08-23T04:33:23.359Z,101805.19
2023-08-23T04:35:51.989Z,101803.53
2023-08-23T04:38:19.742Z,101806.88
2023-08-23T04:40:47.494Z,101796.34
2023-08-23T04:43:15.258Z,101806.88
2023-08-23T04:45:43.154Z,101818.44
2023-08-23T04:48:13.253Z,101822.06
2023-08-23T04:50:41.114Z,101813.38
2023-08-23T04:53:08.901Z,101826.59
2023-08-23T04:55:36.712Z,101825.75
2023-08-23T04:58:04.460Z,101816.88
2023-08-23T05:00:32.191Z,101814.06
2023-08-23T05:02:59.965Z,101814.22
2023-08-23T05:05:29.184Z,101816.88
2023-08-23T05:07:56.992Z,101817.88
2023-08-23T05:10:24.905Z,101820.56
2023-08-23T05:12:53.141Z,101822.38
2023-08-23T05:15:21.001Z,101825.22
2023-08-23T05:17:48.925Z,101825.22
2023-08-23T05:20:18.852Z,101827.19
2023-08-23T05:22:48.020Z,101828.44
2023-08-23T05:25:15.861Z,101828.59
2023-08-23T05:27:43.657Z,101828.72
2023-08-23T05:30:12.342Z,101831.13
2023-08-23T05:32:40.128Z,101823.78
2023-08-23T05:35:08.984Z,101820.84
2023-08-23T05:37:36.723Z,101824.38
2023-08-23T05:40:08.971Z,101824.91
2023-08-23T05:42:36.692Z,101824.63
2023-08-23T05:45:04.811Z,101818.97
2023-08-23T05:47:32.606Z,101816.00
2023-08-23T05:50:00.423Z,101814.75
2023-08-23T05:52:28.104Z,101817.00
2023-08-23T05:54:55.795Z,101812.19
2023-08-23T05:57:25.099Z,101817.22
2023-08-23T05:59:52.843Z,101816.94
2023-08-23T06:02:20.684Z,101821.16
2023-08-23T06:04:48.769Z,101814.66
2023-08-23T06:07:16.824Z,101820.41
2023-08-23T06:09:44.630Z,101826.16
2023-08-23T06:12:12.451Z,101823.03
2023-08-23T06:14:41.725Z,101815.72
2023-08-23T06:17:09.567Z,101816.25
2023-08-23T06:19:37.559Z,101817.94
2023-08-23T06:22:05.421Z,101823.84
2023-08-23T06:24:33.351Z,101824.69
2023-08-23T06:27:01.210Z,101821.53
2023-08-23T06:29:29.098Z,101824.63
2023-08-23T06:31:58.302Z,101818.97
2023-08-23T06:34:26.239Z,101821.19
2023-08-23T06:36:53.980Z,101813.84
2023-08-23T06:39:32.517Z,101813.28
2023-08-23T06:42:00.865Z,101810.19
2023-08-23T06:44:28.731Z,101814.91
2023-08-23T06:46:57.888Z,101814.28
2023-08-23T06:49:25.760Z,101811.47
2023-08-23T06:51:53.618Z,101820.44
2023-08-23T06:54:21.406Z,101820.97
2023-08-23T06:56:49.255Z,101818.97
2023-08-23T06:59:17.069Z,101826.41
2023-08-23T07:01:44.972Z,101819.03
2023-08-23T07:04:16.270Z,101823.50
2023-08-23T07:06:44.328Z,101827.53
2023-08-23T07:09:12.563Z,101825.25
2023-08-23T07:11:40.717Z,101821.56
2023-08-23T07:14:10.053Z,101815.59
2023-08-23T07:16:38.018Z,101824.00
2023-08-23T07:19:06.013Z,101821.84
2023-08-23T07:21:35.198Z,101818.84
2023-08-23T07:24:03.977Z,101832.50
2023-08-23T07:26:31.855Z,101827.53
2023-08-23T07:28:59.672Z,101831.94
2023-08-23T07:31:27.382Z,101832.63
2023-08-23T07:33:55.160Z,101835.00
2023-08-23T07:36:23.099Z,101838.03
2023-08-23T07:38:52.383Z,101844.47
2023-08-23T07:41:20.239Z,101842.16
2023-08-23T07:43:48.091Z,101844.88
2023-08-23T07:46:17.659Z,101834.53
2023-08-23T07:48:45.557Z,101838.25
2023-08-23T07:51:13.391Z,101833.06
2023-08-23T07:53:43.070Z,101836.97
2023-08-23T07:56:15.476Z,101833.59
2023-08-23T07:58:44.286Z,101842.38
2023-08-23T08:01:12.208Z,101842.72
2023-08-23T08:03:40.613Z,101856.22
2023-08-23T08:06:08.956Z,101852.53
2023-08-23T08:08:40.401Z,101858.94
2023-08-23T08:11:08.416Z,101849.56
2023-08-23T08:13:37.640Z,101854.59
2023-08-23T08:16:08.903Z,101849.06
2023-08-23T08:18:36.878Z,101851.44
2023-08-23T08:21:05.458Z,101848.25
2023-08-23T08:23:34.513Z,101849.94
2023-08-23T08:26:02.753Z,101857.03
2023-08-23T08:28:30.538Z,101848.28
2023-08-23T08:30:59.862Z,101850.16
2023-08-23T08:33:27.603Z,101851.34
2023-08-23T08:35:55.423Z,101851.53
2023-08-23T08:38:23.683Z,101853.41
2023-08-23T08:40:52.034Z,101859.81
2023-08-23T08:43:20.002Z,101853.78
2023-08-23T08:45:48.179Z,101854.59
2023-08-23T08:48:17.768Z,101864.84
2023-08-23T08:50:46.228Z,101856.94
2023-08-23T08:53:17.275Z,101864.53
2023-08-23T08:55:45.542Z,101871.22
2023-08-23T08:58:16.777Z,101863.50
2023-08-23T09:00:45.582Z,101865.16
2023-08-23T09:03:13.536Z,101855.59
2023-08-23T09:05:43.111Z,101857.78
2023-08-23T09:08:11.859Z,101869.69
2023-08-23T09:10:39.561Z,101858.63
2023-08-23T09:13:10.195Z,101850.72
2023-08-23T09:15:38.218Z,101845.66
2023-08-23T09:18:07.074Z,101845.00
2023-08-23T09:20:35.161Z,101857.91
2023-08-23T09:23:06.744Z,101855.56
2023-08-23T09:25:34.612Z,101856.06
2023-08-23T09:28:02.375Z,101865.28
2023-08-23T09:30:30.365Z,101864.94
2023-08-23T09:32:59.801Z,101864.59
2023-08-23T09:35:28.514Z,101861.41
2023-08-23T09:37:56.462Z,101860.69
2023-08-23T09:40:27.788Z,101859.34
2023-08-23T09:42:59.244Z,101857.03
2023-08-23T09:45:28.522Z,101848.94
2023-08-23T09:47:58.117Z,101853.31
2023-08-23T09:50:27.158Z,101847.56
2023-08-23T09:53:00.384Z,101840.47
2023-08-23T09:55:31.159Z,101838.59
2023-08-23T09:57:59.113Z,101843.63
2023-08-23T10:00:28.292Z,101835.00
2023-08-23T10:02:57.841Z,101839.38
2023-08-23T10:05:28.210Z,101843.41
2023-08-23T10:07:57.869Z,101837.66
2023-08-23T10:10:26.691Z,101832.25
2023-08-23T10:12:58.352Z,101834.63
2023-08-23T10:15:29.559Z,101837.31
2023-08-23T10:17:57.785Z,101831.94
2023-08-23T10:20:25.836Z,101840.28
2023-08-23T10:22:54.917Z,101825.41
2023-08-23T10:25:23.398Z,101829.06
2023-08-23T10:27:53.936Z,101826.13
2023-08-23T10:30:27.837Z,101824.59
2023-08-23T10:32:56.582Z,101827.09
2023-08-23T10:35:25.599Z,101823.03
2023-08-23T10:37:55.205Z,101820.50
2023-08-23T10:40:23.602Z,101822.19
2023-08-23T10:42:52.039Z,101810.66
2023-08-23T10:45:19.974Z,101813.13
2023-08-23T10:47:52.006Z,101801.53
2023-08-23T10:50:21.066Z,101809.41
2023-08-23T10:52:49.991Z,101807.25
2023-08-23T10:55:18.226Z,101816.28
2023-08-23T10:57:46.754Z,101813.97
2023-08-23T11:00:15.901Z,101804.28
2023-08-23T11:02:44.006Z,101808.00
2023-08-23T11:05:13.302Z,101800.94
2023-08-23T14:27:15.314Z,101690.53
2023-08-23T14:29:43.188Z,101687.47
2023-08-23T14:32:11.693Z,101689.78
2023-08-23T14:34:39.516Z,101687.25
2023-08-23T14:37:07.337Z,101685.53
2023-08-23T14:39:34.901Z,101690.59
2023-08-23T14:42:02.407Z,101687.59
2023-08-23T14:44:31.343Z,101684.56
2023-08-23T14:46:59.873Z,101693.38
2023-08-23T14:49:27.660Z,101698.53
2023-08-23T14:51:55.279Z,101696.47
2023-08-23T14:54:23.155Z,101695.25
2023-08-23T14:56:50.768Z,101700.28
2023-08-23T14:59:18.301Z,101700.94
2023-08-23T15:03:29.298Z,101698.19
2023-08-23T15:05:57.360Z,101696.25
2023-08-23T15:08:25.682Z,101692.56
2023-08-23T15:10:57.835Z,101686.19
2023-08-23T15:13:26.600Z,101692.31
2023-08-23T15:15:59.106Z,101688.13
2023-08-23T15:18:26.900Z,101681.91
2023-08-23T15:20:56.227Z,101689.03
2023-08-23T15:23:24.312Z,101690.75
2023-08-23T15:25:52.140Z,101695.94
2023-08-23T15:28:19.965Z,101691.78
2023-08-23T15:30:47.795Z,101692.38
2023-08-23T15:33:15.691Z,101688.41
2023-08-23T15:35:43.552Z,101690.31
2023-08-23T15:38:12.720Z,101689.94
2023-08-23T15:40:40.698Z,101691.59
2023-08-23T15:43:08.426Z,101689.28
2023-08-23T15:45:36.259Z,101672.44
2023-08-23T15:48:04.408Z,101677.44
2023-08-23T15:50:32.425Z,101681.41
2023-08-23T15:53:00.227Z,101675.38
2023-08-23T15:55:30.819Z,101677.63
2023-08-23T15:57:58.582Z,101681.16
2023-08-23T16:00:26.495Z,101673.69
2023-08-23T16:02:54.540Z,101676.41
2023-08-23T16:05:22.399Z,101669.75
2023-08-23T16:07:50.485Z,101663.28
2023-08-23T16:10:18.690Z,101663.28
2023-08-23T16:12:47.732Z,101665.78
2023-08-23T16:15:15.457Z,101659.94
2023-08-23T16:17:43.177Z,101670.75
2023-08-23T16:20:32.411Z,101678.25
2023-08-23T16:23:00.179Z,101666.91
2023-08-23T16:25:27.972Z,101666.72
2023-08-23T16:27:55.789Z,101671.47
2023-08-23T16:30:23.663Z,101660.44
2023-08-23T16:32:51.793Z,101655.81
2023-08-23T16:35:19.911Z,101657.69
2023-08-23T16:37:49.073Z,101661.84
2023-08-23T16:40:16.764Z,101668.50
2023-08-23T16:42:44.522Z,101655.38
2023-08-23T16:45:12.558Z,101657.25
2023-08-23T16:47:40.288Z,101649.75
2023-08-23T16:50:09.006Z,101646.44
2023-08-23T16:52:36.845Z,101643.72
2023-08-23T16:55:07.334Z,101650.19
2023-08-23T16:57:36.444Z,101649.81
2023-08-23T17:00:07.702Z,101643.56
2023-08-23T17:02:35.658Z,101645.03
2023-08-23T17:05:03.764Z,101646.06
2023-08-23T17:07:31.573Z,101645.41
2023-08-23T17:09:59.606Z,101647.94
2023-08-23T17:12:28.868Z,101652.06
2023-08-23T17:14:56.621Z,101650.41
2023-08-23T17:17:26.427Z,101642.28
2023-08-23T17:19:54.265Z,101648.75
2023-08-23T17:22:23.008Z,101640.00
2023-08-23T17:24:50.842Z,101653.31
2023-08-23T17:27:18.690Z,101648.13
2023-08-23T17:29:47.818Z,101647.69
2023-08-23T17:32:15.558Z,101652.47
2023-08-23T17:34:43.577Z,101651.84
2023-08-23T17:37:11.440Z,101646.59
2023-08-23T17:39:39.165Z,101652.66
2023-08-23T17:42:07.245Z,101645.56
2023-08-23T17:44:34.968Z,101643.47
2023-08-23T17:47:06.534Z,101648.22
2023-08-23T17:49:34.362Z,101659.63
2023-08-23T17:52:02.623Z,101658.72
2023-08-23T17:54:30.446Z,101662.81
2023-08-23T17:56:59.813Z,101662.34
2023-08-23T17:59:29.466Z,101669.13
2023-08-23T18:01:57.783Z,101675.72
2023-08-23T18:04:27.378Z,101680.25
2023-08-23T18:06:55.312Z,101685.59
2023-08-23T18:09:23.157Z,101685.38
2023-08-23T18:11:50.939Z,101686.16
2023-08-23T18:14:18.696Z,101688.75
2023-08-23T18:16:46.579Z,101691.03
2023-08-23T18:19:14.391Z,101684.72
2023-08-23T18:21:43.594Z,101690.97
2023-08-23T18:24:11.423Z,101693.38
2023-08-23T18:26:39.174Z,101702.25
2023-08-23T18:29:06.935Z,101703.69
2023-08-23T18:31:34.838Z,101703.03
2023-08-23T18:34:02.652Z,101703.41
2023-08-23T18:36:30.460Z,101704.44
2023-08-23T18:38:59.540Z,101705.47
2023-08-23T18:41:27.288Z,101708.53
2023-08-23T18:43:56.449Z,101715.63
2023-08-23T18:46:24.252Z,101712.28
2023-08-23T18:48:52.090Z,101724.69
2023-08-23T18:51:19.807Z,101715.22
2023-08-23T18:53:48.225Z,101724.06
2023-08-23T18:56:17.373Z,101722.22
2023-08-23T18:58:45.096Z,101720.72
2023-08-23T19:01:12.888Z,101720.63
2023-08-23T19:03:40.819Z,101723.22
2023-08-23T19:06:08.754Z,101727.53
2023-08-23T19:11:02.158Z,101725.41
2023-08-23T19:13:29.887Z,101733.03
2023-08-23T19:15:57.726Z,101729.47
2023-08-23T19:18:25.545Z,101731.09
2023-08-23T19:20:53.466Z,101736.69
2023-08-23T19:23:21.249Z,101736.84
2023-08-23T19:25:49.000Z,101744.69
2023-08-23T19:28:18.402Z,101737.97
2023-08-23T19:30:46.343Z,101742.31
2023-08-23T19:33:14.176Z,101729.88
2023-08-23T19:35:43.072Z,101738.78
2023-08-23T19:38:11.150Z,101736.28
2023-08-23T19:40:39.080Z,101736.47
2023-08-23T19:43:07.063Z,101735.84
2023-08-23T19:45:36.354Z,101738.69
2023-08-23T19:48:20.536Z,101734.53
2023-08-23T19:50:52.307Z,101737.59
2023-08-23T19:53:20.117Z,101737.41
2023-08-23T19:55:47.935Z,101739.63
2023-08-23T19:58:16.742Z,101744.38
2023-08-23T20:00:45.959Z,101743.91
2023-08-23T20:03:13.932Z,101740.72
2023-08-23T20:05:44.445Z,101752.91
2023-08-23T20:08:12.370Z,101750.34
2023-08-23T20:10:40.131Z,101746.38
2023-08-23T20:13:07.937Z,101752.31
2023-08-23T20:15:35.775Z,101752.88
2023-08-23T20:18:05.637Z,101753.03
2023-08-23T20:20:35.024Z,101752.38
2023-08-23T20:23:02.867Z,101753.59
2023-08-23T20:25:31.272Z,101762.03
2023-08-23T20:27:59.070Z,101750.78
2023-08-23T20:30:26.846Z,101756.38
2023-08-23T20:32:54.607Z,101743.22
2023-08-23T20:35:24.506Z,101749.84
2023-08-23T20:37:52.449Z,101750.22
2023-08-23T20:40:21.757Z,101746.19
2023-08-23T20:42:50.347Z,101740.34
2023-08-23T20:45:18.229Z,101743.19
2023-08-23T20:47:46.161Z,101732.13
2023-08-23T20:50:14.309Z,101734.00
2023-08-23T20:52:45.258Z,101730.47
2023-08-23T20:55:13.073Z,101739.91
2023-08-23T20:57:41.045Z,101737.22
2023-08-23T21:00:11.805Z,101750.22
2023-08-23T21:02:39.728Z,101736.91
2023-08-23T21:05:08.086Z,101738.94
2023-08-23T21:07:36.968Z,101738.47
2023-08-23T21:10:06.923Z,101729.22
2023-08-23T21:12:36.345Z,101730.91
2023-08-23T21:15:04.276Z,101734.63
2023-08-23T21:17:32.169Z,101725.03
2023-08-23T21:19:59.940Z,101722.34
2023-08-23T21:22:27.758Z,101715.44
2023-08-23T21:24:55.469Z,101720.38
2023-08-23T21:27:24.709Z,101721.22
2023-08-23T21:29:52.586Z,101712.66
2023-08-23T21:32:20.396Z,101716.34
2023-08-23T21:34:48.150Z,101715.69
2023-08-23T21:37:15.938Z,101711.84
2023-08-23T21:39:44.879Z,101718.94
2023-08-23T21:42:12.687Z,101716.59
2023-08-23T21:44:43.573Z,101720.66
2023-08-23T21:47:12.746Z,101716.63
2023-08-23T21:49:40.534Z,101719.50
2023-08-23T21:52:08.327Z,101715.34
2023-08-23T21:54:36.154Z,101715.03
2023-08-23T21:57:04.460Z,101723.09
2023-08-23T21:59:32.278Z,101722.44
2023-08-23T22:02:01.349Z,101728.34
2023-08-23T22:04:29.125Z,101728.72
2023-08-23T22:06:56.966Z,101731.53
2023-08-23T22:09:24.726Z,101731.91
2023-08-23T22:11:53.086Z,101733.13
2023-08-23T22:14:20.883Z,101738.81
2023-08-23T22:16:48.634Z,101745.41
2023-08-23T22:19:17.752Z,101748.47
2023-08-23T22:21:45.464Z,101739.69
2023-08-23T22:24:13.239Z,101746.09
2023-08-23T22:26:40.952Z,101737.56
2023-08-23T22:29:08.680Z,101736.84
2023-08-23T22:31:36.555Z,101724.09
2023-08-23T22:34:04.389Z,101734.69
2023-08-23T22:36:33.591Z,101728.66
2023-08-23T22:39:01.273Z,101734.19
2023-08-23T22:41:28.988Z,101732.50
2023-08-23T22:43:56.872Z,101725.63
2023-08-23T22:46:32.209Z,101737.41
2023-08-23T22:49:00.334Z,101736.91
2023-08-23T22:51:28.142Z,101736.41
2023-08-23T22:53:57.660Z,101733.06
2023-08-23T22:56:25.479Z,101726.34
2023-08-23T22:58:53.203Z,101724.66
2023-08-23T23:01:20.961Z,101732.06
2023-08-23T23:03:48.956Z,101728.69
2023-08-23T23:06:16.798Z,101725.34
2023-08-23T23:08:45.093Z,101722.84
2023-08-23T23:11:14.269Z,101718.66
2023-08-23T23:13:41.959Z,101720.00
2023-08-23T23:16:09.774Z,101715.13
2023-08-23T23:18:37.653Z,101723.38
2023-08-23T23:21:07.066Z,101720.03
2023-08-23T23:23:35.055Z,101724.75
2023-08-23T23:26:02.911Z,101715.16
2023-08-23T23:28:32.072Z,101715.00
2023-08-23T23:31:06.511Z,101714.00
2023-08-23T23:33:34.444Z,101711.47
2023-08-23T23:36:02.240Z,101703.56
2023-08-23T23:38:30.598Z,101698.19
2023-08-23T23:40:58.374Z,101699.22
2023-08-23T23:43:26.121Z,101694.84
2023-08-23T23:45:55.236Z,101694.84
2023-08-23T23:48:23.009Z,101698.56
2023-08-23T23:50:50.799Z,101693.50
2023-08-23T23:53:18.815Z,101699.22
2023-08-23T23:55:46.715Z,101703.78
2023-08-23T23:58:14.496Z,101700.59
